createdAt,value
2022-11-14T00:00:35.892Z,96.47
2022-11-14T00:03:08.181Z,95.93
2022-11-14T00:05:40.845Z,95.97
2022-11-14T00:08:20.219Z,95.97
2022-11-14T00:10:51.775Z,96.26
2022-11-14T00:13:22.985Z,96.29
2022-11-14T00:15:54.371Z,96.11
2022-11-14T00:18:25.630Z,95.66
2022-11-14T00:20:56.838Z,96.13
2022-11-14T00:23:28.053Z,96.14
2022-11-14T00:25:59.263Z,95.60
2022-11-14T00:28:30.695Z,95.68
2022-11-14T00:31:02.114Z,95.53
2022-11-14T00:33:33.325Z,96.21
2022-11-14T00:36:04.820Z,95.81
2022-11-14T00:38:36.024Z,95.63
2022-11-14T00:41:07.256Z,95.55
2022-11-14T00:43:38.461Z,95.56
2022-11-14T00:46:09.672Z,95.76
2022-11-14T00:48:41.121Z,95.97
2022-11-14T00:51:12.415Z,95.60
2022-11-14T00:53:43.629Z,95.87
2022-11-14T00:56:14.871Z,96.01
2022-11-14T00:58:46.091Z,95.64
2022-11-14T01:01:17.535Z,95.70
2022-11-14T01:03:49.499Z,95.96
2022-11-14T01:06:20.779Z,96.09
2022-11-14T01:08:52.160Z,95.62
2022-11-14T01:11:23.444Z,96.16
2022-11-14T01:13:54.652Z,95.62
2022-11-14T01:16:25.890Z,96.04
2022-11-14T01:18:57.121Z,95.68
2022-11-14T01:21:28.387Z,95.52
2022-11-14T01:23:59.643Z,95.80
2022-11-14T01:26:30.926Z,96.14
2022-11-14T01:29:02.152Z,95.71
2022-11-14T01:31:33.385Z,95.71
2022-11-14T01:34:04.601Z,95.84
2022-11-14T01:36:35.865Z,96.00
2022-11-14T01:39:07.196Z,96.13
2022-11-14T01:41:38.414Z,95.51
2022-11-14T01:44:14.041Z,96.05
2022-11-14T01:46:47.218Z,95.80
2022-11-14T01:49:20.575Z,95.69
2022-11-14T01:51:57.946Z,95.81
2022-11-14T01:54:32.616Z,95.32
2022-11-14T01:57:05.025Z,95.41
2022-11-14T01:59:41.089Z,95.32
2022-11-14T02:02:16.931Z,95.86
2022-11-14T02:05:00.420Z,95.33
2022-11-14T02:07:34.280Z,95.85
2022-11-14T02:10:07.527Z,95.58
2022-11-14T02:12:38.747Z,96.00
2022-11-14T02:15:10.109Z,95.18
2022-11-14T02:17:42.170Z,95.49
2022-11-14T02:20:13.414Z,95.79
2022-11-14T02:22:44.621Z,95.64
2022-11-14T02:25:18.029Z,95.81
2022-11-14T02:27:49.568Z,95.16
2022-11-14T02:30:22.428Z,95.66
2022-11-14T02:35:44.989Z,95.22
2022-11-14T02:38:16.379Z,95.39
2022-11-14T02:40:47.698Z,95.34
2022-11-14T02:43:18.984Z,95.91
2022-11-14T02:45:50.225Z,95.47
2022-11-14T02:48:21.524Z,95.91
2022-11-14T02:50:52.758Z,95.83
2022-11-14T02:53:23.980Z,95.76
2022-11-14T02:55:55.275Z,95.08
2022-11-14T02:58:26.486Z,95.49
2022-11-14T03:01:19.677Z,95.77
2022-11-14T03:03:48.934Z,95.95
2022-11-14T03:06:20.232Z,95.73
2022-11-14T03:08:51.437Z,95.26
2022-11-14T03:11:22.639Z,95.73
2022-11-14T03:13:53.949Z,95.87
2022-11-14T03:16:25.272Z,95.75
2022-11-14T03:18:56.568Z,95.31
2022-11-14T03:21:27.798Z,95.17
2022-11-14T03:23:59.038Z,95.50
2022-11-14T03:26:30.680Z,95.83
2022-11-14T03:29:01.878Z,95.47
2022-11-14T03:31:33.084Z,95.44
2022-11-14T03:34:04.385Z,95.88
2022-11-14T03:36:35.934Z,95.76
2022-11-14T03:39:07.126Z,95.36
2022-11-14T03:41:38.339Z,95.75
2022-11-14T03:44:09.636Z,95.24
2022-11-14T03:46:40.907Z,95.43
2022-11-14T03:49:12.225Z,95.07
2022-11-14T03:51:43.444Z,95.80
2022-11-14T03:54:14.724Z,95.84
2022-11-14T03:56:46.401Z,95.44
2022-11-14T03:59:17.595Z,95.17
2022-11-14T04:01:49.006Z,95.71
2022-11-14T04:04:20.200Z,95.40
2022-11-14T04:06:51.509Z,95.47
2022-11-14T04:09:22.838Z,95.73
2022-11-14T04:11:54.152Z,95.68
2022-11-14T04:14:25.356Z,95.22
2022-11-14T04:16:56.647Z,95.66
2022-11-14T04:19:27.892Z,95.74
2022-11-14T04:21:59.107Z,95.56
2022-11-14T04:24:30.337Z,95.80
2022-11-14T04:27:01.572Z,95.19
2022-11-14T04:29:32.776Z,95.18
2022-11-14T04:32:04.119Z,95.27
2022-11-14T04:34:35.344Z,95.09
2022-11-14T04:37:06.654Z,95.32
2022-11-14T04:39:37.871Z,95.25
2022-11-14T04:42:09.108Z,95.73
2022-11-14T04:44:40.431Z,94.98
2022-11-14T04:47:11.710Z,95.55
2022-11-14T04:49:42.991Z,95.52
2022-11-14T04:52:14.216Z,95.51
2022-11-14T04:54:45.408Z,95.60
2022-11-14T04:57:17.784Z,95.62
2022-11-14T04:59:49.027Z,95.68
2022-11-14T05:02:20.278Z,95.36
2022-11-14T05:04:51.541Z,95.40
2022-11-14T05:07:22.870Z,95.01
2022-11-14T05:09:54.163Z,95.39
2022-11-14T05:12:25.854Z,95.54
2022-11-14T05:14:57.163Z,95.46
2022-11-14T05:17:28.464Z,95.62
2022-11-14T05:19:59.668Z,95.21
2022-11-14T05:22:30.847Z,95.02
2022-11-14T05:25:02.113Z,95.25
2022-11-14T05:27:33.426Z,94.84
2022-11-14T05:30:04.894Z,94.98
2022-11-14T05:32:36.104Z,95.36
2022-11-14T05:35:07.568Z,95.46
2022-11-14T05:37:38.988Z,95.10
2022-11-14T05:40:10.420Z,95.24
2022-11-14T05:42:41.617Z,94.90
2022-11-14T05:45:12.851Z,94.76
2022-11-14T05:47:44.052Z,94.71
2022-11-14T05:50:16.239Z,94.89
2022-11-14T05:52:47.512Z,95.35
2022-11-14T05:55:24.395Z,94.85
2022-11-14T05:57:59.338Z,94.96
2022-11-14T06:00:32.391Z,94.90
2022-11-14T06:03:07.427Z,94.82
2022-11-14T06:05:38.625Z,94.72
2022-11-14T06:08:09.842Z,94.69
2022-11-14T06:10:41.057Z,95.04
2022-11-14T06:13:12.253Z,95.16
2022-11-14T06:15:43.465Z,94.98
2022-11-14T06:18:14.681Z,95.20
2022-11-14T06:20:45.913Z,95.14
2022-11-14T06:23:21.972Z,94.67
2022-11-14T06:26:00.610Z,95.19
2022-11-14T06:28:32.196Z,94.75
2022-11-14T06:31:04.294Z,95.30
2022-11-14T06:33:36.857Z,94.79
2022-11-14T06:36:08.560Z,95.21
2022-11-14T06:38:40.459Z,94.80
2022-11-14T06:41:12.703Z,95.10
2022-11-14T06:43:45.313Z,94.51
2022-11-14T06:46:18.343Z,94.94
2022-11-14T06:48:49.876Z,94.95
2022-11-14T06:51:21.087Z,95.03
2022-11-14T06:53:52.386Z,95.00
2022-11-14T06:56:23.617Z,95.51
2022-11-14T06:58:54.841Z,94.81
2022-11-14T07:01:26.052Z,94.53
2022-11-14T07:03:58.700Z,94.66
2022-11-14T07:06:30.243Z,94.72
2022-11-14T07:09:01.469Z,94.80
2022-11-14T07:11:34.965Z,95.16
2022-11-14T07:14:06.758Z,95.01
2022-11-14T07:16:38.990Z,95.06
2022-11-14T07:19:10.718Z,94.78
2022-11-14T07:21:41.967Z,95.09
2022-11-14T07:24:13.188Z,94.87
2022-11-14T07:26:45.478Z,95.30
2022-11-14T07:29:16.699Z,95.23
2022-11-14T07:31:47.939Z,95.05
2022-11-14T07:34:19.211Z,94.97
2022-11-14T07:36:50.713Z,94.97
2022-11-14T07:39:21.918Z,95.20
2022-11-14T07:41:53.151Z,95.41
2022-11-14T07:44:24.369Z,94.95
2022-11-14T07:46:55.564Z,94.87
2022-11-14T07:49:26.840Z,95.01
2022-11-14T07:51:58.033Z,94.90
2022-11-14T07:54:29.249Z,95.18
2022-11-14T07:57:00.448Z,95.24
2022-11-14T07:59:31.647Z,94.83
2022-11-14T08:02:03.016Z,94.87
2022-11-14T08:04:34.249Z,94.92
2022-11-14T08:07:05.506Z,94.72
2022-11-14T08:09:36.805Z,95.33
2022-11-14T08:12:08.095Z,94.96
2022-11-14T08:14:39.378Z,94.92
2022-11-14T08:17:10.579Z,95.19
2022-11-14T08:19:42.007Z,95.41
2022-11-14T08:22:13.199Z,94.92
2022-11-14T08:24:44.455Z,95.25
2022-11-14T08:27:15.707Z,94.97
2022-11-14T08:29:46.942Z,94.84
2022-11-14T08:32:18.765Z,94.47
2022-11-14T08:34:50.032Z,94.72
2022-11-14T08:37:21.322Z,94.92
2022-11-14T08:39:52.600Z,94.65
2022-11-14T08:42:23.804Z,94.96
2022-11-14T08:44:55.005Z,94.91
2022-11-14T08:47:26.202Z,94.78
2022-11-14T08:49:58.146Z,94.82
2022-11-14T08:52:29.376Z,95.19
2022-11-14T08:55:00.582Z,94.63
2022-11-14T08:57:31.779Z,94.64
2022-11-14T09:00:03.495Z,94.81
2022-11-14T09:02:34.775Z,94.95
2022-11-14T09:05:06.147Z,95.25
2022-11-14T09:07:37.410Z,95.35
2022-11-14T09:10:09.018Z,95.33
2022-11-14T09:12:40.259Z,95.01
2022-11-14T09:15:11.751Z,94.55
2022-11-14T09:17:43.003Z,94.58
2022-11-14T09:20:14.609Z,95.16
2022-11-14T09:22:45.983Z,95.14
2022-11-14T09:25:17.286Z,94.92
2022-11-14T09:27:48.488Z,95.35
2022-11-14T09:30:19.829Z,95.32
2022-11-14T09:32:51.076Z,95.20
2022-11-14T09:35:22.312Z,95.38
2022-11-14T09:38:06.809Z,94.75
2022-11-14T09:40:43.943Z,94.92
2022-11-14T09:43:34.891Z,95.04
2022-11-14T09:46:16.506Z,95.43
2022-11-14T09:48:47.989Z,94.81
2022-11-14T09:51:20.669Z,94.59
2022-11-14T09:53:56.165Z,95.08
2022-11-14T09:56:27.410Z,94.68
2022-11-14T09:58:58.658Z,94.90
2022-11-14T10:01:35.883Z,95.29
2022-11-14T10:04:23.857Z,95.27
2022-11-14T10:07:01.181Z,94.65
2022-11-14T10:09:39.586Z,95.51
2022-11-14T10:12:18.236Z,95.47
2022-11-14T10:15:01.549Z,94.77
2022-11-14T10:17:53.177Z,95.15
2022-11-14T10:20:32.849Z,95.02
2022-11-14T10:23:19.371Z,95.03
2022-11-14T10:25:50.630Z,94.73
2022-11-14T10:28:21.820Z,95.15
2022-11-14T10:31:02.862Z,95.18
2022-11-14T10:33:42.032Z,95.25
2022-11-14T10:36:43.934Z,94.97
2022-11-14T10:39:17.980Z,95.29
2022-11-14T10:41:58.060Z,95.12
2022-11-14T10:44:39.026Z,94.88
2022-11-14T10:47:12.809Z,95.07
2022-11-14T10:49:46.800Z,95.11
2022-11-14T10:52:19.968Z,94.96
2022-11-14T10:54:56.588Z,94.80
2022-11-14T10:57:28.152Z,94.72
2022-11-14T10:59:59.368Z,94.71
2022-11-14T11:02:46.563Z,94.51
2022-11-14T11:05:19.129Z,94.74
2022-11-14T11:08:36.183Z,94.59
2022-11-14T11:11:19.591Z,94.44
2022-11-14T11:13:53.667Z,94.31
2022-11-14T11:16:25.933Z,94.61
2022-11-14T11:19:22.542Z,94.54
2022-11-14T11:21:53.834Z,94.33
2022-11-14T11:24:32.676Z,94.17
2022-11-14T11:27:20.182Z,93.52
2022-11-14T11:30:06.558Z,93.34
2022-11-14T11:32:37.780Z,92.92
2022-11-14T11:35:13.364Z,92.46
2022-11-14T11:37:46.406Z,92.74
2022-11-14T11:40:20.065Z,93.08
2022-11-14T11:45:49.701Z,93.57
2022-11-14T11:48:37.079Z,93.92
2022-11-14T11:51:14.594Z,93.81
2022-11-14T11:53:58.418Z,93.84
2022-11-14T11:56:32.883Z,93.83
2022-11-14T11:59:15.041Z,93.69
2022-11-14T12:01:46.282Z,93.82
2022-11-14T12:04:17.726Z,93.89
2022-11-14T12:06:54.277Z,94.06
2022-11-14T12:09:48.751Z,93.89
2022-11-14T12:12:26.240Z,94.00
2022-11-14T12:15:13.226Z,93.53
2022-11-14T12:18:13.975Z,93.85
2022-11-14T12:20:52.532Z,93.69
2022-11-14T12:23:47.883Z,93.89
2022-11-14T12:26:27.612Z,93.64
2022-11-14T12:29:21.240Z,93.62
2022-11-14T12:31:59.244Z,93.41
2022-11-14T12:34:33.161Z,93.34
2022-11-14T12:37:09.175Z,93.62
2022-11-14T12:39:40.884Z,93.81
2022-11-14T12:42:15.612Z,93.47
2022-11-14T12:44:47.057Z,93.12
2022-11-14T12:47:28.078Z,93.44
2022-11-14T12:50:01.125Z,93.14
2022-11-14T12:52:44.570Z,92.96
2022-11-14T12:55:18.594Z,93.63
2022-11-14T12:58:01.145Z,93.76
2022-11-14T13:00:34.855Z,93.28
2022-11-14T13:03:24.270Z,93.82
2022-11-14T13:05:59.219Z,93.07
2022-11-14T13:08:30.394Z,93.46
2022-11-14T13:11:41.552Z,93.20
2022-11-14T13:14:31.693Z,93.12
2022-11-14T13:17:36.935Z,93.20
2022-11-14T13:20:45.264Z,93.23
2022-11-14T13:23:25.772Z,93.26
2022-11-14T13:26:09.307Z,93.00
2022-11-14T13:28:45.076Z,92.97
2022-11-14T13:31:16.360Z,93.02
2022-11-14T13:33:49.813Z,93.24
2022-11-14T13:36:41.436Z,93.38
2022-11-14T13:39:30.946Z,93.03
2022-11-14T13:42:20.317Z,93.39
2022-11-14T13:45:10.412Z,93.52
2022-11-14T13:47:41.628Z,93.18
2022-11-14T13:50:19.503Z,93.51
2022-11-14T13:52:50.975Z,93.48
2022-11-14T13:55:32.404Z,93.59
2022-11-14T13:58:17.312Z,93.60
2022-11-14T14:01:03.937Z,93.43
2022-11-14T14:03:47.110Z,92.99
2022-11-14T14:06:37.121Z,93.10
2022-11-14T14:09:28.582Z,93.35
2022-11-14T14:12:18.645Z,92.77
2022-11-14T14:14:58.985Z,92.94
2022-11-14T14:17:30.205Z,92.56
2022-11-14T14:20:26.612Z,92.94
2022-11-14T14:23:10.204Z,92.82
2022-11-14T14:25:47.666Z,92.92
2022-11-14T14:28:31.818Z,93.13
2022-11-14T14:31:14.926Z,92.92
2022-11-14T14:33:47.188Z,93.12
2022-11-14T14:36:23.395Z,92.99
2022-11-14T14:39:13.383Z,92.80
2022-11-14T14:41:44.823Z,93.20
2022-11-14T14:44:36.300Z,92.82
2022-11-14T14:47:17.616Z,92.74
2022-11-14T14:49:48.845Z,92.66
2022-11-14T14:52:39.004Z,93.00
2022-11-14T14:55:30.281Z,92.72
2022-11-14T14:58:15.082Z,92.58
2022-11-14T15:00:57.820Z,92.72
2022-11-14T15:03:42.910Z,93.01
2022-11-14T15:06:29.760Z,92.44
2022-11-14T15:09:03.347Z,92.63
2022-11-14T15:11:34.888Z,92.68
2022-11-14T15:14:06.800Z,92.72
2022-11-14T15:16:38.092Z,92.32
2022-11-14T15:19:12.536Z,92.72
2022-11-14T15:21:43.931Z,92.45
2022-11-14T15:24:16.976Z,92.38
2022-11-14T15:26:52.125Z,92.14
2022-11-14T15:29:25.155Z,92.72
2022-11-14T15:31:58.655Z,92.40
2022-11-14T15:34:31.576Z,92.54
2022-11-14T15:37:16.175Z,92.22
2022-11-14T15:39:48.463Z,92.00
2022-11-14T15:42:26.501Z,92.46
2022-11-14T15:44:57.714Z,92.02
2022-11-14T15:47:30.107Z,92.41
2022-11-14T15:50:02.851Z,92.10
2022-11-14T15:52:39.160Z,92.24
2022-11-14T15:55:15.851Z,92.37
2022-11-14T15:57:52.042Z,92.38
2022-11-14T16:00:42.914Z,91.90
2022-11-14T16:03:17.396Z,92.13
2022-11-14T16:05:48.669Z,92.56
2022-11-14T16:09:48.267Z,93.04
2022-11-14T16:12:19.700Z,93.39
2022-11-14T16:14:50.898Z,94.19
2022-11-14T16:17:22.151Z,94.05
2022-11-14T16:19:53.360Z,94.30
2022-11-14T16:22:24.595Z,94.03
2022-11-14T16:24:56.736Z,94.20
2022-11-14T16:27:27.989Z,94.00
2022-11-14T16:29:59.236Z,94.54
2022-11-14T16:32:30.455Z,94.49
2022-11-14T16:35:01.731Z,94.29
2022-11-14T16:37:32.973Z,94.35
2022-11-14T16:40:04.401Z,94.09
2022-11-14T16:42:35.656Z,94.20
2022-11-14T16:45:07.417Z,94.23
2022-11-14T16:47:39.037Z,94.09
2022-11-14T16:50:10.249Z,94.38
2022-11-14T16:52:41.490Z,94.19
2022-11-14T16:55:12.901Z,94.25
2022-11-14T16:57:44.103Z,93.99
2022-11-14T17:00:15.893Z,94.29
2022-11-14T17:02:47.533Z,94.46
2022-11-14T17:05:18.860Z,94.34
2022-11-14T17:07:50.053Z,94.35
2022-11-14T17:10:21.262Z,94.37
2022-11-14T17:12:52.549Z,94.80
2022-11-14T17:15:23.804Z,94.38
2022-11-14T17:17:56.041Z,94.53
2022-11-14T17:20:27.391Z,94.25
2022-11-14T17:22:58.695Z,94.39
2022-11-14T17:25:30.193Z,94.46
2022-11-14T17:28:01.488Z,94.53
2022-11-14T17:30:32.705Z,94.24
2022-11-14T17:33:03.925Z,94.26
2022-11-14T17:35:35.670Z,94.60
2022-11-14T17:38:06.952Z,94.17
2022-11-14T17:40:38.318Z,94.54
2022-11-14T17:43:09.634Z,94.50
2022-11-14T17:45:41.442Z,94.63
2022-11-14T17:48:12.893Z,94.83
2022-11-14T17:50:44.162Z,94.54
2022-11-14T17:53:15.460Z,94.24
2022-11-14T17:55:46.784Z,94.76
2022-11-14T17:58:18.128Z,94.49
2022-11-14T18:00:50.398Z,94.38
2022-11-14T18:03:21.679Z,94.41
2022-11-14T18:05:53.295Z,94.62
2022-11-14T18:08:25.782Z,94.35
2022-11-14T18:10:59.728Z,94.39
2022-11-14T18:13:31.381Z,94.50
2022-11-14T18:16:03.823Z,94.46
2022-11-14T18:18:35.882Z,94.18
2022-11-14T18:21:17.302Z,94.27
2022-11-14T18:23:55.718Z,94.48
2022-11-14T18:26:28.284Z,94.83
2022-11-14T18:29:03.486Z,94.24
2022-11-14T18:31:34.777Z,94.58
2022-11-14T18:34:06.043Z,94.57
2022-11-14T18:36:37.301Z,94.42
2022-11-14T18:39:08.581Z,94.76
2022-11-14T18:41:39.833Z,94.81
2022-11-14T18:44:11.161Z,94.78
2022-11-14T18:46:42.415Z,94.84
2022-11-14T18:49:13.679Z,94.72
2022-11-14T18:51:44.976Z,94.87
2022-11-14T18:54:17.542Z,94.32
2022-11-14T18:56:48.780Z,94.69
2022-11-14T18:59:20.039Z,94.27
2022-11-14T19:01:51.418Z,94.53
2022-11-14T19:04:23.471Z,94.59
2022-11-14T19:06:54.873Z,94.78
2022-11-14T19:09:26.168Z,95.21
2022-11-14T19:12:16.234Z,94.91
2022-11-14T19:14:49.634Z,95.04
2022-11-14T19:17:22.321Z,95.06
2022-11-14T19:19:53.700Z,94.98
2022-11-14T19:22:24.943Z,95.01
2022-11-14T19:24:57.736Z,95.15
2022-11-14T19:27:29.039Z,94.93
2022-11-14T19:30:00.347Z,95.08
2022-11-14T19:32:33.699Z,95.34
2022-11-14T19:35:05.120Z,95.26
2022-11-14T19:37:36.474Z,95.40
2022-11-14T19:40:08.075Z,95.27
2022-11-14T19:42:39.432Z,94.70
2022-11-14T19:45:10.756Z,95.40
2022-11-14T19:47:42.013Z,95.54
2022-11-14T19:50:14.768Z,95.61
2022-11-14T19:52:45.980Z,95.31
2022-11-14T19:55:17.301Z,95.13
2022-11-14T19:57:48.611Z,95.06
2022-11-14T20:00:19.968Z,95.27
2022-11-14T20:02:51.586Z,95.35
2022-11-14T20:05:22.860Z,95.18
2022-11-14T20:07:54.133Z,95.43
2022-11-14T20:10:25.365Z,95.09
2022-11-14T20:12:56.691Z,95.16
2022-11-14T20:15:29.140Z,95.31
2022-11-14T20:18:00.352Z,95.29
2022-11-14T20:20:31.614Z,95.02
2022-11-14T20:23:03.129Z,95.20
2022-11-14T20:25:38.113Z,95.11
2022-11-14T20:28:09.556Z,95.36
2022-11-14T20:30:41.467Z,95.25
2022-11-14T20:33:12.799Z,95.12
2022-11-14T20:35:44.223Z,95.36
2022-11-14T20:38:15.510Z,95.14
2022-11-14T20:40:53.576Z,95.11
2022-11-14T20:43:25.296Z,95.41
2022-11-14T20:46:00.236Z,95.08
2022-11-14T20:48:33.519Z,95.26
2022-11-14T20:51:10.147Z,95.25
2022-11-14T20:53:41.815Z,95.21
2022-11-14T20:56:13.569Z,95.31
2022-11-14T20:58:46.035Z,95.43
2022-11-14T21:01:17.626Z,95.50
2022-11-14T21:03:49.056Z,95.57
2022-11-14T21:06:20.273Z,95.16
2022-11-14T21:08:51.482Z,95.26
2022-11-14T21:11:23.366Z,95.17
2022-11-14T21:13:58.448Z,95.25
2022-11-14T21:16:31.449Z,95.22
2022-11-14T21:19:03.658Z,95.19
2022-11-14T21:21:36.068Z,94.88
2022-11-14T21:24:07.517Z,95.00
2022-11-14T21:26:39.048Z,95.12
2022-11-14T21:29:11.436Z,95.20
2022-11-14T21:31:44.546Z,95.24
2022-11-14T21:34:16.661Z,95.25
2022-11-14T21:36:48.294Z,95.05
2022-11-14T21:39:19.518Z,95.04
2022-11-14T21:41:51.049Z,95.08
2022-11-14T21:44:22.373Z,95.43
2022-11-14T21:46:53.575Z,95.10
2022-11-14T21:49:25.505Z,95.09
2022-11-14T21:51:56.760Z,95.07
2022-11-14T21:54:27.958Z,94.88
2022-11-14T21:56:59.170Z,95.32
2022-11-14T21:59:31.375Z,95.19
2022-11-14T22:02:21.548Z,95.37
2022-11-14T22:04:52.772Z,95.22
2022-11-14T22:07:24.183Z,95.33
2022-11-14T22:09:55.430Z,95.37
2022-11-14T22:12:26.629Z,94.97
2022-11-14T22:14:57.864Z,95.09
2022-11-14T22:17:29.107Z,95.14
2022-11-14T22:20:00.344Z,95.42
2022-11-14T22:22:31.926Z,95.35
2022-11-14T22:25:03.186Z,95.31
2022-11-14T22:27:34.471Z,95.17
2022-11-14T22:30:05.892Z,95.13
2022-11-14T22:32:37.104Z,95.17
2022-11-14T22:35:08.409Z,95.02
2022-11-14T22:37:39.636Z,95.17
2022-11-14T22:40:11.151Z,94.57
2022-11-14T22:42:42.354Z,94.92
2022-11-14T22:45:13.606Z,94.87
2022-11-14T22:47:44.938Z,94.68
2022-11-14T22:50:16.226Z,94.79
2022-11-14T22:52:47.422Z,94.69
2022-11-14T22:55:18.692Z,94.56
2022-11-14T22:57:49.919Z,94.64
2022-11-14T23:00:21.207Z,94.57
2022-11-14T23:02:53.255Z,94.91
2022-11-14T23:05:24.496Z,95.08
2022-11-14T23:07:55.915Z,95.43
2022-11-14T23:10:27.142Z,95.68
2022-11-14T23:12:58.365Z,95.67
2022-11-14T23:15:29.735Z,95.98
2022-11-14T23:18:01.179Z,95.84
2022-11-14T23:20:35.198Z,96.22
2022-11-14T23:23:06.403Z,96.22
2022-11-14T23:25:37.824Z,96.37
2022-11-14T23:28:09.041Z,96.13
2022-11-14T23:30:40.241Z,96.51
2022-11-14T23:33:11.475Z,96.65
2022-11-14T23:35:42.672Z,96.88
2022-11-14T23:38:14.266Z,96.91
2022-11-14T23:40:51.151Z,96.86
2022-11-14T23:43:22.404Z,96.93
2022-11-14T23:45:53.671Z,96.63
2022-11-14T23:48:25.018Z,96.76
2022-11-14T23:50:56.388Z,96.95
2022-11-14T23:53:27.701Z,97.06
2022-11-14T23:55:59.946Z,96.62
2022-11-14T23:58:31.257Z,96.84
